createdAt,value
2022-08-20T00:01:09.619Z,2.10
2022-08-20T00:03:44.566Z,2.70
2022-08-20T00:06:19.398Z,2.42
2022-08-20T00:08:46.784Z,3.28
2022-08-20T00:11:17.741Z,3.13
2022-08-20T00:13:56.246Z,2.60
2022-08-20T00:16:24.515Z,3.03
2022-08-20T00:18:51.427Z,2.65
2022-08-20T00:21:19.987Z,2.90
2022-08-20T00:23:50.575Z,2.50
2022-08-20T00:26:18.173Z,4.72
2022-08-20T00:28:45.137Z,3.17
2022-08-20T00:31:14.788Z,2.17
2022-08-20T00:33:41.367Z,2.60
2022-08-20T00:36:10.722Z,3.53
2022-08-20T00:38:39.075Z,4.10
2022-08-20T00:41:07.923Z,3.20
2022-08-20T00:43:45.031Z,3.13
2022-08-20T00:46:22.418Z,2.42
2022-08-20T00:48:58.628Z,3.60
2022-08-20T00:51:30.067Z,3.20
2022-08-20T00:54:02.976Z,3.30
2022-08-20T00:56:33.893Z,3.05
2022-08-20T00:59:02.001Z,3.63
2022-08-20T01:01:29.608Z,3.60
2022-08-20T01:03:57.539Z,2.88
2022-08-20T01:06:25.219Z,2.30
2022-08-20T01:08:52.732Z,3.92
2022-08-20T01:11:22.812Z,3.30
2022-08-20T01:13:50.790Z,3.55
2022-08-20T01:16:28.627Z,4.07
2022-08-20T01:18:57.627Z,3.88
2022-08-20T01:21:28.355Z,3.05
2022-08-20T01:24:07.511Z,3.17
2022-08-20T01:27:05.891Z,3.00
2022-08-20T01:29:39.236Z,3.30
2022-08-20T01:32:06.822Z,3.47
2022-08-20T01:34:33.605Z,2.60
2022-08-20T01:37:00.885Z,3.05
2022-08-20T01:39:35.731Z,3.58
2022-08-20T01:42:35.334Z,3.17
2022-08-20T01:45:02.083Z,2.58
2022-08-20T01:47:38.470Z,3.13
2022-08-20T01:50:22.797Z,4.07
2022-08-20T01:52:57.593Z,2.03
2022-08-20T01:55:26.653Z,3.63
2022-08-20T01:57:54.147Z,2.95
2022-08-20T02:00:22.421Z,3.35
2022-08-20T02:02:49.504Z,2.22
2022-08-20T02:05:16.671Z,2.78
2022-08-20T02:07:43.254Z,3.15
2022-08-20T02:10:12.045Z,3.10
2022-08-20T02:12:39.911Z,2.33
2022-08-20T02:15:10.457Z,3.13
2022-08-20T02:17:38.372Z,2.90
2022-08-20T02:20:13.252Z,2.72
2022-08-20T02:22:49.250Z,2.78
2022-08-20T02:25:19.654Z,2.90
2022-08-20T02:27:51.862Z,2.63
2022-08-20T02:30:27.901Z,2.00
2022-08-20T02:32:58.916Z,2.65
2022-08-20T02:35:26.578Z,2.25
2022-08-20T02:37:53.926Z,3.42
2022-08-20T02:40:30.237Z,2.53
2022-08-20T02:43:01.977Z,3.35
2022-08-20T02:45:31.398Z,2.22
2022-08-20T02:47:58.886Z,2.45
2022-08-20T02:50:26.970Z,2.55
2022-08-20T02:52:54.212Z,1.85
2022-08-20T02:55:27.966Z,2.08
2022-08-20T02:57:59.627Z,3.03
2022-08-20T03:02:53.843Z,3.78
2022-08-20T03:05:20.517Z,2.40
2022-08-20T03:07:53.322Z,3.35
2022-08-20T03:10:32.017Z,4.07
2022-08-20T03:13:01.051Z,3.25
2022-08-20T03:15:28.255Z,3.13
2022-08-20T03:17:55.062Z,3.30
2022-08-20T03:20:23.831Z,2.63
2022-08-20T03:22:51.847Z,2.67
2022-08-20T03:25:19.336Z,2.70
2022-08-20T03:27:47.125Z,2.55
2022-08-20T03:30:20.194Z,4.28
2022-08-20T03:32:47.111Z,2.72
2022-08-20T03:35:15.873Z,2.90
2022-08-20T03:37:48.125Z,1.95
2022-08-20T03:40:22.783Z,3.92
2022-08-20T03:42:49.756Z,3.97
2022-08-20T03:45:20.385Z,2.63
2022-08-20T03:47:49.551Z,4.35
2022-08-20T03:50:22.763Z,3.15
2022-08-20T03:52:52.825Z,3.65
2022-08-20T03:55:20.755Z,4.15
2022-08-20T03:57:51.952Z,2.45
2022-08-20T04:00:26.974Z,3.60
2022-08-20T04:02:56.486Z,2.95
2022-08-20T04:05:28.293Z,3.42
2022-08-20T04:07:55.976Z,3.42
2022-08-20T04:10:25.376Z,3.60
2022-08-20T04:12:53.157Z,2.83
2022-08-20T04:15:21.142Z,3.15
2022-08-20T04:17:54.038Z,3.67
2022-08-20T04:20:23.809Z,2.58
2022-08-20T04:22:59.123Z,2.75
2022-08-20T04:25:36.178Z,2.35
2022-08-20T04:28:06.281Z,2.97
2022-08-20T04:30:33.733Z,3.33
2022-08-20T04:33:01.163Z,1.90
2022-08-20T04:35:28.560Z,2.40
2022-08-20T04:38:07.175Z,4.30
2022-08-20T04:40:54.263Z,2.25
2022-08-20T04:43:23.211Z,1.85
2022-08-20T04:45:51.908Z,3.22
2022-08-20T04:48:19.696Z,2.63
2022-08-20T04:50:46.942Z,2.80
2022-08-20T04:53:23.958Z,2.63
2022-08-20T04:55:54.353Z,3.15
2022-08-20T04:58:26.200Z,2.70
2022-08-20T05:00:55.710Z,2.65
2022-08-20T05:03:28.644Z,2.00
2022-08-20T05:05:56.867Z,3.38
2022-08-20T05:08:26.024Z,2.60
2022-08-20T05:11:15.530Z,2.13
2022-08-20T05:13:42.683Z,2.80
2022-08-20T05:16:09.457Z,3.60
2022-08-20T05:18:37.112Z,2.08
2022-08-20T05:21:05.934Z,2.20
2022-08-20T05:23:35.540Z,2.55
2022-08-20T05:26:07.510Z,2.10
2022-08-20T05:28:35.528Z,2.22
2022-08-20T05:31:18.120Z,1.80
2022-08-20T05:34:23.882Z,1.70
2022-08-20T05:40:57.087Z,1.85
2022-08-20T05:43:45.061Z,2.00
2022-08-20T05:46:12.440Z,1.85
2022-08-20T05:48:42.968Z,1.83
2022-08-20T05:51:13.302Z,1.65
2022-08-20T05:53:41.880Z,2.33
2022-08-20T05:56:10.268Z,2.00
2022-08-20T05:58:37.381Z,1.63
2022-08-20T06:01:04.488Z,2.03
2022-08-20T06:03:49.586Z,1.85
2022-08-20T06:06:44.229Z,2.30
2022-08-20T06:09:03.297Z,2.85
2022-08-20T06:11:32.712Z,4.60
2022-08-20T06:14:03.808Z,5.13
2022-08-20T06:16:30.659Z,5.68
2022-08-20T06:18:58.500Z,5.78
2022-08-20T06:21:25.531Z,7.30
2022-08-20T06:23:57.187Z,10.45
2022-08-20T06:26:29.849Z,8.90
2022-08-20T06:29:06.836Z,12.63
2022-08-20T06:31:34.964Z,12.55
2022-08-20T06:34:01.779Z,11.40
2022-08-20T06:36:28.327Z,12.13
2022-08-20T06:38:56.107Z,9.30
2022-08-20T06:41:22.633Z,13.23
2022-08-20T06:44:02.526Z,6.97
2022-08-20T06:46:29.072Z,9.05
2022-08-20T06:48:55.613Z,14.55
2022-08-20T06:51:23.103Z,12.48
2022-08-20T06:53:49.654Z,12.43
2022-08-20T06:56:16.529Z,14.13
2022-08-20T06:58:43.890Z,13.07
2022-08-20T07:01:12.203Z,10.30
2022-08-20T07:03:40.587Z,11.98
2022-08-20T07:06:21.286Z,14.25
2022-08-20T07:08:47.864Z,12.73
2022-08-20T07:11:14.495Z,11.57
2022-08-20T07:13:41.982Z,15.57
2022-08-20T07:16:08.977Z,11.65
2022-08-20T07:18:36.075Z,10.18
2022-08-20T07:21:02.692Z,14.82
2022-08-20T07:23:30.910Z,12.60
2022-08-20T07:25:57.614Z,11.60
2022-08-20T07:28:28.569Z,12.90
2022-08-20T07:31:15.722Z,11.50
2022-08-20T07:33:44.601Z,10.10
2022-08-20T07:36:12.818Z,12.52
2022-08-20T07:38:39.675Z,13.32
2022-08-20T07:41:09.847Z,10.48
2022-08-20T07:43:36.722Z,11.50
2022-08-20T07:46:08.834Z,10.60
2022-08-20T07:48:41.768Z,11.95
2022-08-20T07:51:10.925Z,8.48
2022-08-20T07:53:39.232Z,7.75
2022-08-20T07:56:10.112Z,11.10
2022-08-20T07:58:42.802Z,8.60
2022-08-20T08:01:11.416Z,9.63
2022-08-20T08:07:26.348Z,9.80
2022-08-20T08:09:54.040Z,10.05
2022-08-20T08:12:21.310Z,12.07
2022-08-20T08:14:48.353Z,10.82
2022-08-20T08:17:19.206Z,9.73
2022-08-20T08:19:50.835Z,8.20
2022-08-20T08:22:19.216Z,9.73
2022-08-20T08:24:57.341Z,9.68
2022-08-20T08:27:24.618Z,9.43
2022-08-20T08:29:51.163Z,7.50
2022-08-20T08:32:17.733Z,9.95
2022-08-20T08:34:48.087Z,9.38
2022-08-20T08:37:14.619Z,9.27
2022-08-20T08:39:41.236Z,8.73
2022-08-20T08:42:24.848Z,9.35
2022-08-20T08:44:52.209Z,9.15
2022-08-20T08:47:27.094Z,9.15
2022-08-20T08:49:54.099Z,10.43
2022-08-20T08:52:24.539Z,6.85
2022-08-20T08:54:54.727Z,9.20
2022-08-20T08:57:21.458Z,6.03
2022-08-20T09:00:03.913Z,9.85
2022-08-20T09:02:34.249Z,9.88
2022-08-20T09:05:03.724Z,9.23
2022-08-20T09:07:33.036Z,8.38
2022-08-20T09:10:01.526Z,9.02
2022-08-20T09:12:28.280Z,7.97
2022-08-20T09:14:55.165Z,8.70
2022-08-20T09:17:23.001Z,10.63
2022-08-20T09:19:52.069Z,10.40
2022-08-20T09:22:21.872Z,9.93
2022-08-20T09:24:49.391Z,10.90
2022-08-20T09:27:16.044Z,9.85
2022-08-20T09:29:42.880Z,12.13
2022-08-20T09:32:19.138Z,10.48
2022-08-20T09:34:52.037Z,10.90
2022-08-20T09:37:19.378Z,11.00
2022-08-20T09:39:46.016Z,11.00
2022-08-20T09:42:16.787Z,10.77
2022-08-20T09:44:43.997Z,9.40
2022-08-20T09:47:11.430Z,12.13
2022-08-20T09:49:38.652Z,10.45
2022-08-20T09:52:07.845Z,10.18
2022-08-20T09:54:36.021Z,10.52
2022-08-20T09:57:06.409Z,11.00
2022-08-20T09:59:35.024Z,9.85
2022-08-20T10:02:01.741Z,11.23
2022-08-20T10:04:28.585Z,10.82
2022-08-20T10:06:55.484Z,10.60
2022-08-20T10:09:22.108Z,9.43
2022-08-20T10:11:48.691Z,10.68
2022-08-20T10:14:15.217Z,10.50
2022-08-20T10:16:41.774Z,9.32
2022-08-20T10:19:08.393Z,9.85
2022-08-20T10:21:47.005Z,11.93
2022-08-20T10:24:13.660Z,11.63
2022-08-20T10:26:40.495Z,9.18
2022-08-20T10:29:07.030Z,10.38
2022-08-20T10:31:33.868Z,9.55
2022-08-20T10:34:00.501Z,10.68
2022-08-20T10:36:27.101Z,10.27
2022-08-20T10:38:53.740Z,9.77
2022-08-20T10:41:21.326Z,10.25
2022-08-20T10:43:48.124Z,9.93
2022-08-20T10:46:15.033Z,10.55
2022-08-20T10:48:41.661Z,9.73
2022-08-20T10:51:08.463Z,10.18
2022-08-20T10:53:35.094Z,10.65
2022-08-20T10:56:01.846Z,10.65
2022-08-20T10:58:37.516Z,10.95
2022-08-20T11:01:06.084Z,10.95
2022-08-20T11:03:32.870Z,9.73
2022-08-20T11:05:59.471Z,10.35
2022-08-20T11:08:34.076Z,9.52
2022-08-20T11:11:02.867Z,9.55
2022-08-20T11:13:29.540Z,12.07
2022-08-20T11:15:56.146Z,9.95
2022-08-20T11:18:22.751Z,10.13
2022-08-20T11:20:49.381Z,11.55
2022-08-20T11:23:16.011Z,10.80
2022-08-20T11:25:42.585Z,10.13
2022-08-20T11:28:09.269Z,11.15
2022-08-20T11:30:37.588Z,10.93
2022-08-20T11:33:04.876Z,11.13
2022-08-20T11:35:48.366Z,9.98
2022-08-20T11:38:17.348Z,9.57
2022-08-20T11:40:43.987Z,10.90
2022-08-20T11:43:14.580Z,9.35
2022-08-20T11:48:09.066Z,7.30
2022-08-20T11:50:35.665Z,8.95
2022-08-20T11:53:02.266Z,9.45
2022-08-20T11:55:30.343Z,9.82
2022-08-20T11:58:00.201Z,9.45
2022-08-20T12:00:31.992Z,9.85
2022-08-20T12:03:01.044Z,8.57
2022-08-20T12:05:29.474Z,9.48
2022-08-20T12:07:56.451Z,7.80
2022-08-20T12:10:24.498Z,8.43
2022-08-20T12:12:51.171Z,9.80
2022-08-20T12:15:17.987Z,8.45
2022-08-20T12:17:44.588Z,10.30
2022-08-20T12:20:13.444Z,9.23
2022-08-20T12:22:40.454Z,11.27
2022-08-20T12:25:08.457Z,8.38
2022-08-20T12:27:36.148Z,8.88
2022-08-20T12:30:09.272Z,8.90
2022-08-20T12:32:35.951Z,8.05
2022-08-20T12:35:02.966Z,7.82
2022-08-20T12:37:31.275Z,9.25
2022-08-20T12:40:01.651Z,9.35
2022-08-20T12:42:32.127Z,7.90
2022-08-20T12:45:00.068Z,8.50
2022-08-20T12:47:27.870Z,8.07
2022-08-20T12:49:57.818Z,7.30
2022-08-20T12:52:25.683Z,7.60
2022-08-20T12:54:53.053Z,7.88
2022-08-20T12:57:30.805Z,6.80
2022-08-20T12:59:59.901Z,5.90
2022-08-20T13:02:27.612Z,7.75
2022-08-20T13:04:54.438Z,6.30
2022-08-20T13:07:22.359Z,7.30
2022-08-20T13:09:48.964Z,6.30
2022-08-20T13:12:15.579Z,6.22
2022-08-20T13:14:43.107Z,6.45
2022-08-20T13:17:10.086Z,6.45
2022-08-20T13:19:38.446Z,5.47
2022-08-20T13:22:05.661Z,5.60
2022-08-20T13:24:32.210Z,6.15
2022-08-20T13:27:16.749Z,6.65
2022-08-20T13:29:55.124Z,6.35
2022-08-20T13:32:24.756Z,5.35
2022-08-20T13:34:51.818Z,5.10
2022-08-20T13:37:25.752Z,4.80
2022-08-20T13:39:57.879Z,4.82
2022-08-20T13:42:25.258Z,4.13
2022-08-20T13:44:52.244Z,4.35
2022-08-20T13:47:20.096Z,4.63
2022-08-20T13:49:48.033Z,4.72
2022-08-20T13:52:16.935Z,3.50
2022-08-20T13:54:43.891Z,3.80
2022-08-20T13:57:13.211Z,4.68
2022-08-20T13:59:43.428Z,3.40
2022-08-20T14:02:11.380Z,4.13
2022-08-20T14:04:38.823Z,3.55
2022-08-20T14:07:20.008Z,3.17
2022-08-20T14:09:57.111Z,3.88
2022-08-20T14:12:24.986Z,3.65
2022-08-20T14:14:52.871Z,3.55
2022-08-20T14:17:29.480Z,4.07
2022-08-20T14:20:01.490Z,3.58
2022-08-20T14:22:29.641Z,3.38
2022-08-20T14:24:56.673Z,3.47
2022-08-20T14:27:29.044Z,3.08
2022-08-20T14:29:58.135Z,3.22
2022-08-20T14:32:25.204Z,3.33
2022-08-20T14:34:51.865Z,3.53
2022-08-20T14:37:42.871Z,3.58
2022-08-20T14:40:12.760Z,3.90
2022-08-20T14:42:39.908Z,3.40
2022-08-20T14:45:08.423Z,4.00
2022-08-20T14:47:41.370Z,3.78
2022-08-20T14:50:12.334Z,4.07
2022-08-20T14:52:39.409Z,3.55
2022-08-20T14:55:13.038Z,3.60
2022-08-20T14:57:40.200Z,3.30
2022-08-20T15:00:10.284Z,3.55
2022-08-20T15:02:37.995Z,4.28
2022-08-20T15:05:07.213Z,4.35
2022-08-20T15:07:37.607Z,4.65
2022-08-20T15:10:08.746Z,4.65
2022-08-20T15:12:39.218Z,4.60
2022-08-20T15:27:13.771Z,5.05
2022-08-20T15:29:40.813Z,4.82
2022-08-20T15:32:08.715Z,4.97
2022-08-20T15:34:44.465Z,4.63
2022-08-20T15:37:14.486Z,5.30
2022-08-20T15:57:48.287Z,4.10
2022-08-20T16:00:20.084Z,4.18
2022-08-20T16:03:01.594Z,4.55
2022-08-20T16:05:36.605Z,4.25
2022-08-20T16:08:05.953Z,4.25
2022-08-20T16:10:47.667Z,4.00
2022-08-20T16:13:38.911Z,4.28
2022-08-20T16:16:40.171Z,4.95
2022-08-20T16:19:17.086Z,5.28
2022-08-20T16:21:46.089Z,4.55
2022-08-20T16:24:13.966Z,4.13
2022-08-20T16:27:24.856Z,3.75
2022-08-20T16:30:07.308Z,4.82
2022-08-20T16:32:56.840Z,4.85
2022-08-20T16:39:32.754Z,3.90
2022-08-20T16:42:33.666Z,4.82
2022-08-20T16:45:02.059Z,4.65
2022-08-20T16:47:32.139Z,5.70
2022-08-20T16:50:36.635Z,4.43
2022-08-20T16:53:03.346Z,4.72
2022-08-20T16:55:30.422Z,4.93
2022-08-20T16:57:56.979Z,5.25
2022-08-20T17:00:34.881Z,4.53
2022-08-20T17:03:33.583Z,4.90
2022-08-20T17:06:35.456Z,5.38
2022-08-20T17:09:08.622Z,5.85
2022-08-20T17:11:37.115Z,5.85
2022-08-20T17:14:05.495Z,5.32
2022-08-20T17:16:54.968Z,5.75
2022-08-20T17:19:29.653Z,5.20
2022-08-20T17:22:08.074Z,6.05
2022-08-20T17:24:36.119Z,5.93
2022-08-20T17:27:10.112Z,5.22
2022-08-20T17:29:49.911Z,5.25
2022-08-20T17:32:23.236Z,5.05
2022-08-20T17:34:53.172Z,4.50
2022-08-20T17:37:24.935Z,5.38
2022-08-20T17:40:11.158Z,4.72
2022-08-20T17:43:01.372Z,6.25
2022-08-20T17:45:42.736Z,6.20
2022-08-20T17:50:43.550Z,4.22
2022-08-20T17:53:23.339Z,5.35
2022-08-20T17:55:54.753Z,4.78
2022-08-20T17:58:41.817Z,4.63
2022-08-20T18:01:22.877Z,4.82
2022-08-20T18:03:51.558Z,4.88
2022-08-20T18:06:37.181Z,4.47
2022-08-20T18:09:13.632Z,4.10
2022-08-20T18:11:49.517Z,4.53
2022-08-20T18:14:32.988Z,4.25
2022-08-20T18:17:24.039Z,4.07
2022-08-20T18:20:13.218Z,4.05
2022-08-20T18:23:05.325Z,4.43
2022-08-20T18:25:45.875Z,4.00
2022-08-20T18:28:21.870Z,4.47
2022-08-20T18:30:51.574Z,3.90
2022-08-20T18:33:33.626Z,4.57
2022-08-20T18:36:07.786Z,3.80
2022-08-20T18:38:38.265Z,4.97
2022-08-20T18:41:15.002Z,4.53
2022-08-20T18:43:42.979Z,4.25
2022-08-20T18:46:24.056Z,4.88
2022-08-20T18:49:03.708Z,5.05
2022-08-20T18:51:42.644Z,4.65
2022-08-20T18:54:20.968Z,5.15
2022-08-20T18:56:47.610Z,4.72
2022-08-20T18:59:20.318Z,4.80
2022-08-20T19:01:49.126Z,4.85
2022-08-20T19:04:31.905Z,4.95
2022-08-20T19:07:04.983Z,4.80
2022-08-20T19:09:46.420Z,4.55
2022-08-20T19:15:07.208Z,5.07
2022-08-20T19:17:57.108Z,5.40
2022-08-20T19:20:29.352Z,5.20
2022-08-20T19:23:05.777Z,5.55
2022-08-20T19:25:36.761Z,5.57
2022-08-20T19:28:17.367Z,5.43
2022-08-20T19:30:44.817Z,4.88
2022-08-20T19:33:11.422Z,4.75
2022-08-20T19:35:38.043Z,5.07
2022-08-20T19:38:08.280Z,5.70
2022-08-20T19:40:38.839Z,5.72
2022-08-20T19:43:11.138Z,4.78
2022-08-20T19:45:46.437Z,5.22
2022-08-20T19:48:31.064Z,4.70
2022-08-20T19:51:22.855Z,5.53
2022-08-20T19:53:49.924Z,5.68
2022-08-20T19:56:19.675Z,5.30
2022-08-20T19:59:17.368Z,4.85
2022-08-20T20:02:00.348Z,5.15
2022-08-20T20:04:29.827Z,4.75
2022-08-20T20:06:58.306Z,5.43
2022-08-20T20:09:28.389Z,5.43
2022-08-20T20:11:57.177Z,4.50
2022-08-20T20:14:31.099Z,4.60
2022-08-20T20:16:58.457Z,4.28
2022-08-20T20:19:27.165Z,4.18
2022-08-20T20:22:19.978Z,4.75
2022-08-20T20:25:17.594Z,5.03
2022-08-20T20:27:55.034Z,5.07
2022-08-20T20:30:31.951Z,4.53
2022-08-20T20:33:01.652Z,4.30
2022-08-20T20:35:31.093Z,4.30
2022-08-20T20:38:08.144Z,5.07
2022-08-20T20:40:50.028Z,4.60
2022-08-20T20:43:35.614Z,4.50
2022-08-20T20:46:16.431Z,4.10
2022-08-20T20:48:51.792Z,4.32
2022-08-20T20:51:38.440Z,3.58
2022-08-20T20:54:21.235Z,4.38
2022-08-20T20:57:04.501Z,3.90
2022-08-20T20:59:35.040Z,3.67
2022-08-20T21:02:03.345Z,4.28
2022-08-20T21:04:30.130Z,3.53
2022-08-20T21:06:58.972Z,4.25
2022-08-20T21:09:26.525Z,4.53
2022-08-20T21:11:53.135Z,4.07
2022-08-20T21:14:19.864Z,3.97
2022-08-20T21:16:46.582Z,4.13
2022-08-20T21:19:14.767Z,3.53
2022-08-20T21:21:41.784Z,3.75
2022-08-20T21:24:08.915Z,4.47
2022-08-20T21:26:36.541Z,3.33
2022-08-20T21:29:05.212Z,3.15
2022-08-20T21:31:36.562Z,4.57
2022-08-20T21:34:03.200Z,4.47
2022-08-20T21:36:29.960Z,3.47
2022-08-20T21:38:56.587Z,4.18
2022-08-20T21:41:29.481Z,3.58
2022-08-20T21:43:57.840Z,3.45
2022-08-20T21:46:25.889Z,3.53
2022-08-20T21:48:52.494Z,4.00
2022-08-20T21:51:19.088Z,3.53
2022-08-20T21:53:46.071Z,3.58
2022-08-20T21:56:12.755Z,3.47
2022-08-20T21:58:39.528Z,3.63
2022-08-20T22:01:14.419Z,3.42
2022-08-20T22:03:41.529Z,3.80
2022-08-20T22:06:11.701Z,3.78
2022-08-20T22:08:39.016Z,4.60
2022-08-20T22:11:08.229Z,2.97
2022-08-20T22:13:35.318Z,3.17
2022-08-20T22:16:06.286Z,3.38
2022-08-20T22:18:33.519Z,3.30
2022-08-20T22:21:00.149Z,2.92
2022-08-20T22:23:27.710Z,3.70
2022-08-20T22:25:54.303Z,3.67
2022-08-20T22:28:21.470Z,3.60
2022-08-20T22:30:48.325Z,3.60
2022-08-20T22:33:20.788Z,3.22
2022-08-20T22:35:52.427Z,3.47
2022-08-20T22:38:19.364Z,3.78
2022-08-20T22:40:46.439Z,3.67
2022-08-20T22:43:14.527Z,3.00
2022-08-20T22:45:45.377Z,2.85
2022-08-20T22:48:15.491Z,3.08
2022-08-20T22:50:42.245Z,3.22
2022-08-20T22:53:09.876Z,2.97
2022-08-20T22:55:36.680Z,3.47
2022-08-20T22:58:03.305Z,3.47
2022-08-20T23:00:32.507Z,3.25
2022-08-20T23:03:01.000Z,3.55
2022-08-20T23:05:30.961Z,3.33
2022-08-20T23:07:59.405Z,3.10
2022-08-20T23:10:28.435Z,3.20
2022-08-20T23:12:55.218Z,3.65
2022-08-20T23:15:21.824Z,3.55
2022-08-20T23:17:48.556Z,3.42
2022-08-20T23:20:17.861Z,3.15
2022-08-20T23:22:44.729Z,3.35
2022-08-20T23:25:12.350Z,3.50
2022-08-20T23:27:46.480Z,3.15
2022-08-20T23:30:14.434Z,3.40
2022-08-20T23:32:41.362Z,3.38
2022-08-20T23:35:09.179Z,3.10
2022-08-20T23:37:40.704Z,3.15
2022-08-20T23:42:35.538Z,3.00
2022-08-20T23:45:02.184Z,2.97
2022-08-20T23:47:28.881Z,3.40
2022-08-20T23:49:55.535Z,4.45
2022-08-20T23:52:22.139Z,3.25
2022-08-20T23:54:48.901Z,2.83
2022-08-20T23:57:16.261Z,3.10
2022-08-20T23:59:47.909Z,2.90
